Time;durP1;ratioP1;P1;durP2;ratioP2;P2;SDS_P1;SDS_P2;PMS_P1;PMS_P2;Temp;Humidity;BMP_temperature;BMP_pressure;BME280_temperature;BME280_humidity;BME280_pressure;Samples;Min_cycle;Max_cycle;Signal;HPM_P1;HPM_P2
2021/06/04 00:00:16;;;;;;;5.07;4.53;;;21.00;1.00;;;;;;5058966;28;20529;-68
2021/06/04 00:02:42;;;;;;;4.97;4.53;;;20.90;1.00;;;;;;5060021;28;20431;-70
2021/06/04 00:05:10;;;;;;;5.90;4.70;;;20.90;1.00;;;;;;5059611;28;20465;-67
2021/06/04 00:07:38;;;;;;;5.23;4.80;;;20.90;1.00;;;;;;5058793;28;20459;-68
2021/06/04 00:10:07;;;;;;;5.63;5.07;;;20.90;1.00;;;;;;5058437;28;20981;-68
2021/06/04 00:12:33;;;;;;;5.57;5.00;;;20.80;1.00;;;;;;5058571;28;20471;-68
2021/06/04 00:15:06;;;;;;;5.40;4.90;;;20.80;1.00;;;;;;5058308;28;20451;-67
2021/06/04 00:17:36;;;;;;;7.73;5.37;;;20.70;1.00;;;;;;5057963;28;20447;-67
2021/06/04 00:20:06;;;;;;;5.13;4.63;;;20.70;1.00;;;;;;5058876;28;20451;-68
2021/06/04 00:22:32;;;;;;;7.33;5.17;;;20.70;1.00;;;;;;5056751;28;20446;-67
2021/06/04 00:24:58;;;;;;;5.70;5.10;;;20.60;1.00;;;;;;5056697;28;20517;-67
2021/06/04 00:27:25;;;;;;;5.90;5.40;;;20.60;1.00;;;;;;5056308;28;20463;-67
2021/06/04 00:29:52;;;;;;;5.43;5.03;;;20.60;1.00;;;;;;5056193;28;20462;-67
2021/06/04 00:32:22;;;;;;;6.30;4.60;;;20.60;1.00;;;;;;5056518;28;20455;-67
2021/06/04 00:34:50;;;;;;;5.40;4.90;;;20.60;1.00;;;;;;5056535;28;20471;-67
2021/06/04 00:37:17;;;;;;;5.50;5.00;;;20.60;1.00;;;;;;5056280;28;20463;-67
2021/06/04 00:39:44;;;;;;;5.87;4.90;;;20.60;1.00;;;;;;5055974;28;20942;-67
2021/06/04 00:42:15;;;;;;;7.93;5.33;;;20.60;1.00;;;;;;5056412;28;20483;-67
2021/06/04 00:44:46;;;;;;;5.37;4.77;;;20.50;1.00;;;;;;5055994;28;20443;-67
2021/06/04 00:47:13;;;;;;;5.33;4.90;;;20.50;1.00;;;;;;5056264;28;20454;-67
2021/06/04 00:49:40;;;;;;;5.97;5.47;;;20.50;1.00;;;;;;5056199;28;20459;-67
2021/06/04 00:52:12;;;;;;;6.27;5.57;;;20.50;1.00;;;;;;5055943;28;20455;-67
2021/06/04 00:54:39;;;;;;;5.33;4.47;;;20.40;1.00;;;;;;5056323;28;20451;-68
2021/06/04 00:57:06;;;;;;;5.13;4.73;;;20.40;1.00;;;;;;5055842;28;20459;-68
2021/06/04 00:59:37;;;;;;;5.57;5.07;;;20.40;1.00;;;;;;5056062;28;20529;-67
2021/06/04 01:02:05;;;;;;;5.20;4.70;;;20.40;1.00;;;;;;5055819;28;20467;-68
2021/06/04 01:04:32;;;;;;;5.60;5.10;;;20.40;1.00;;;;;;5056063;28;20466;-68
2021/06/04 01:07:02;;;;;;;5.43;4.70;;;20.40;1.00;;;;;;5055691;28;20831;-68
2021/06/04 01:09:41;;;;;;;5.73;4.83;;;20.40;1.00;;;;;;5055674;28;20463;-68
2021/06/04 01:12:30;;;;;;;5.40;5.00;;;20.40;1.00;;;;;;5055380;28;20440;-68
2021/06/04 01:15:05;;;;;;;4.87;4.47;;;20.40;1.00;;;;;;5055206;28;20439;-68
2021/06/04 01:17:37;;;;;;;5.57;5.00;;;20.40;1.00;;;;;;5055965;28;20500;-68
2021/06/04 01:20:09;;;;;;;6.53;5.17;;;20.40;1.00;;;;;;5055728;28;20435;-68
2021/06/04 01:23:15;;;;;;;4.93;4.53;;;20.30;1.00;;;;;;5055395;28;20494;-68
2021/06/04 01:25:49;;;;;;;5.67;4.27;;;20.30;1.00;;;;;;5056017;28;20519;-68
2021/06/04 01:28:20;;;;;;;6.03;4.90;;;20.30;1.00;;;;;;5055645;28;20499;-68
2021/06/04 01:30:52;;;;;;;5.97;5.40;;;20.30;1.00;;;;;;5055405;28;20504;-68
2021/06/04 01:33:23;;;;;;;5.10;4.63;;;20.30;1.00;;;;;;5054434;28;20487;-68
2021/06/04 01:35:54;;;;;;;5.67;5.17;;;20.30;1.00;;;;;;5055205;28;20447;-68
2021/06/04 01:38:27;;;;;;;5.70;4.90;;;20.30;1.00;;;;;;5055420;28;20896;-68
2021/06/04 01:40:58;;;;;;;5.53;5.00;;;20.30;1.00;;;;;;5055193;28;20463;-68
2021/06/04 01:43:29;;;;;;;5.00;4.50;;;20.30;1.00;;;;;;5055931;28;20450;-68
2021/06/04 01:45:59;;;;;;;5.33;4.83;;;20.30;1.00;;;;;;5056157;28;20560;-68
2021/06/04 01:48:28;;;;;;;5.37;4.87;;;20.30;1.00;;;;;;5055668;28;20455;-68
2021/06/04 01:50:58;;;;;;;5.33;4.83;;;20.30;1.00;;;;;;5055771;28;20455;-69
2021/06/04 01:53:28;;;;;;;5.53;4.60;;;20.30;1.00;;;;;;5056010;28;20517;-68
2021/06/04 01:56:02;;;;;;;5.20;4.70;;;20.20;1.00;;;;;;5055765;28;20459;-68
2021/06/04 01:58:35;;;;;;;4.97;4.57;;;20.20;1.00;;;;;;5055637;28;20453;-68
2021/06/04 02:01:08;;;;;;;5.53;5.03;;;20.20;1.00;;;;;;5056357;28;20588;-68
2021/06/04 02:03:34;;;;;;;5.73;5.23;;;20.20;1.00;;;;;;5057225;28;20440;-68
2021/06/04 02:06:01;;;;;;;5.27;4.77;;;20.20;1.00;;;;;;5056276;28;20459;-68
2021/06/04 02:08:31;;;;;;;5.90;5.17;;;20.20;1.00;;;;;;5055508;28;20452;-68
2021/06/04 02:11:01;;;;;;;5.67;5.17;;;20.20;1.00;;;;;;5055561;28;20497;-68
2021/06/04 02:13:28;;;;;;;5.90;5.17;;;20.20;1.00;;;;;;5055569;28;20439;-68
2021/06/04 02:16:19;;;;;;;8.03;5.43;;;20.20;1.00;;;;;;5055313;28;20466;-68
2021/06/04 02:18:54;;;;;;;7.53;4.77;;;20.30;1.00;;;;;;5055067;28;20444;-68
2021/06/04 02:21:26;;;;;;;4.80;4.27;;;20.30;1.00;;;;;;5055076;28;20463;-68
2021/06/04 02:24:03;;;;;;;5.90;5.30;;;20.30;1.00;;;;;;5055271;28;20446;-68
2021/06/04 02:26:34;;;;;;;5.30;4.90;;;20.30;1.00;;;;;;5055101;28;20451;-68
2021/06/04 02:29:07;;;;;;;5.60;4.70;;;20.30;1.00;;;;;;5055026;28;20447;-68
2021/06/04 02:31:38;;;;;;;9.30;4.77;;;20.30;1.00;;;;;;5055067;28;20439;-68
2021/06/04 02:34:09;;;;;;;4.87;4.47;;;20.30;1.00;;;;;;5055200;28;20478;-68
2021/06/04 02:36:40;;;;;;;6.37;5.13;;;20.20;1.00;;;;;;5055537;28;20444;-68
2021/06/04 02:39:12;;;;;;;4.73;4.40;;;20.20;1.00;;;;;;5055258;28;20450;-68
2021/06/04 02:41:43;;;;;;;4.80;4.40;;;20.20;1.00;;;;;;5054450;28;20467;-68
2021/06/04 02:44:12;;;;;;;5.60;5.10;;;20.20;1.00;;;;;;5055109;28;20506;-68
2021/06/04 02:46:42;;;;;;;5.33;4.83;;;20.20;1.00;;;;;;5058631;28;20470;-68
2021/06/04 02:49:11;;;;;;;5.63;5.00;;;20.10;1.00;;;;;;5058305;28;20459;-68
2021/06/04 02:51:41;;;;;;;6.23;5.63;;;20.10;1.00;;;;;;5058242;28;20509;-68
2021/06/04 02:54:11;;;;;;;6.07;4.47;;;20.10;1.00;;;;;;5058005;28;20439;-68
2021/06/04 02:56:41;;;;;;;5.90;5.20;;;20.10;1.00;;;;;;5058266;28;20796;-68
2021/06/04 02:59:10;;;;;;;5.63;5.00;;;20.10;1.00;;;;;;5058157;28;20467;-68
2021/06/04 03:01:40;;;;;;;5.70;5.10;;;20.10;1.00;;;;;;5058013;28;20482;-68
2021/06/04 03:04:09;;;;;;;5.40;4.90;;;20.10;1.00;;;;;;5058043;28;20472;-68
2021/06/04 03:06:39;;;;;;;5.00;4.57;;;20.10;1.00;;;;;;5058012;28;20458;-68
2021/06/04 03:09:11;;;;;;;6.00;5.40;;;20.10;1.00;;;;;;5058136;28;20466;-68
2021/06/04 03:11:37;;;;;;;5.37;4.87;;;20.10;1.00;;;;;;5057597;28;20485;-68
2021/06/04 03:14:08;;;;;;;5.50;4.80;;;20.10;1.00;;;;;;5057706;28;20455;-68
2021/06/04 03:16:35;;;;;;;5.37;4.87;;;20.10;1.00;;;;;;5057945;28;20440;-68
2021/06/04 03:19:05;;;;;;;5.23;4.83;;;20.10;1.00;;;;;;5057549;28;20782;-68
2021/06/04 03:21:36;;;;;;;5.20;4.70;;;20.10;1.00;;;;;;5058306;28;20462;-68
2021/06/04 03:24:05;;;;;;;5.17;4.67;;;20.10;1.00;;;;;;5057725;28;20811;-68
2021/06/04 03:26:32;;;;;;;5.43;4.93;;;20.20;1.00;;;;;;5057586;28;20454;-68
2021/06/04 03:29:02;;;;;;;5.60;5.10;;;20.20;1.00;;;;;;5057510;28;20455;-68
2021/06/04 03:31:33;;;;;;;5.47;4.97;;;20.20;1.00;;;;;;5057639;28;20452;-68
2021/06/04 03:34:00;;;;;;;7.53;5.00;;;20.20;1.00;;;;;;5057278;28;20544;-68
2021/06/04 03:36:28;;;;;;;5.40;4.63;;;20.10;1.00;;;;;;5057421;28;20459;-69
2021/06/04 03:38:55;;;;;;;5.30;4.80;;;20.10;1.00;;;;;;5057254;28;20455;-68
2021/06/04 03:41:25;;;;;;;6.73;5.00;;;20.10;1.00;;;;;;5057108;28;20475;-68
2021/06/04 03:43:51;;;;;;;5.20;4.50;;;20.20;1.00;;;;;;5056936;28;20470;-68
2021/06/04 03:46:18;;;;;;;5.03;4.53;;;20.10;1.00;;;;;;5056978;28;20508;-68
2021/06/04 03:48:45;;;;;;;7.73;4.90;;;20.10;1.00;;;;;;5056955;28;20452;-68
2021/06/04 03:51:24;;;;;;;5.70;5.10;;;20.10;1.00;;;;;;5056683;28;20931;-68
2021/06/04 03:53:51;;;;;;;6.40;4.70;;;20.10;1.00;;;;;;5056821;28;20443;-68
2021/06/04 03:56:18;;;;;;;5.47;4.70;;;20.10;1.00;;;;;;5056330;28;20459;-69
2021/06/04 03:58:44;;;;;;;6.30;4.80;;;20.10;1.00;;;;;;5058103;28;20459;-68
2021/06/04 04:01:23;;;;;;;5.30;4.73;;;20.10;1.00;;;;;;5056820;28;20568;-68
2021/06/04 04:03:50;;;;;;;4.70;4.30;;;20.10;1.00;;;;;;5056859;28;20447;-68
2021/06/04 04:06:17;;;;;;;5.10;4.70;;;20.10;1.00;;;;;;5056484;28;20456;-68
2021/06/04 04:08:45;;;;;;;10.00;5.03;;;20.10;1.00;;;;;;5056950;28;20470;-69
2021/06/04 04:11:13;;;;;;;8.70;5.50;;;20.10;1.00;;;;;;5056484;28;20908;-69
2021/06/04 04:13:39;;;;;;;5.83;5.20;;;20.10;1.00;;;;;;5056521;28;20455;-68
2021/06/04 04:16:06;;;;;;;6.10;5.43;;;20.10;1.00;;;;;;5056824;28;20455;-68
2021/06/04 04:18:33;;;;;;;5.23;4.80;;;20.00;1.00;;;;;;5056776;28;20460;-68
2021/06/04 04:21:05;;;;;;;6.47;4.47;;;20.00;1.00;;;;;;5056723;28;20479;-68
2021/06/04 04:23:34;;;;;;;5.80;5.20;;;20.00;1.00;;;;;;5056718;28;20454;-68
2021/06/04 04:26:00;;;;;;;5.27;4.77;;;20.10;1.00;;;;;;5056580;28;20470;-68
2021/06/04 04:28:30;;;;;;;5.40;4.53;;;20.00;1.00;;;;;;5056172;28;20789;-68
2021/06/04 04:30:58;;;;;;;5.43;4.93;;;20.10;1.00;;;;;;5056533;28;20509;-68
2021/06/04 04:33:24;;;;;;;6.00;5.50;;;20.10;1.00;;;;;;5056262;28;20483;-68
2021/06/04 04:35:51;;;;;;;5.83;5.33;;;20.10;1.00;;;;;;5056198;28;20927;-69
2021/06/04 04:38:20;;;;;;;6.00;5.40;;;20.10;1.00;;;;;;5056419;28;20459;-69
2021/06/04 04:40:48;;;;;;;5.93;5.37;;;20.00;1.00;;;;;;5055866;28;20982;-68
2021/06/04 04:43:15;;;;;;;8.30;5.00;;;20.00;1.00;;;;;;5056050;28;20459;-69
2021/06/04 04:45:41;;;;;;;6.37;5.20;;;20.00;1.00;;;;;;5056072;28;20478;-68
2021/06/04 04:48:08;;;;;;;5.83;5.23;;;20.00;1.00;;;;;;5055727;28;20459;-68
2021/06/04 04:50:35;;;;;;;5.97;5.43;;;20.00;1.00;;;;;;5056271;28;20455;-68
2021/06/04 04:53:03;;;;;;;5.23;4.83;;;20.00;1.00;;;;;;5055559;28;20467;-68
2021/06/04 04:55:34;;;;;;;6.17;5.57;;;19.90;1.00;;;;;;5055743;28;20977;-68
2021/06/04 04:58:01;;;;;;;5.27;4.83;;;19.90;1.00;;;;;;5056061;28;20896;-68
2021/06/04 05:00:28;;;;;;;6.23;5.63;;;19.90;1.00;;;;;;5055769;28;20558;-69
2021/06/04 05:02:55;;;;;;;6.17;5.67;;;19.80;1.00;;;;;;5055726;28;20894;-68
2021/06/04 05:05:27;;;;;;;5.57;5.07;;;19.80;1.00;;;;;;5055755;28;20455;-69
2021/06/04 05:07:53;;;;;;;9.00;6.33;;;19.70;1.00;;;;;;5055912;28;20444;-69
2021/06/04 05:10:20;;;;;;;68.93;49.20;;;19.70;1.00;;;;;;5055782;28;20533;-69
2021/06/04 05:12:48;;;;;;;8.83;8.03;;;19.60;1.00;;;;;;5055747;28;20482;-69
2021/06/04 05:15:17;;;;;;;5.87;5.20;;;19.60;1.00;;;;;;5055510;28;20458;-69
2021/06/04 05:17:44;;;;;;;5.90;5.40;;;19.60;1.00;;;;;;5055994;28;20919;-69
2021/06/04 05:20:13;;;;;;;5.27;4.77;;;19.60;1.00;;;;;;5055597;28;20462;-69
2021/06/04 05:22:40;;;;;;;7.37;5.77;;;19.50;1.00;;;;;;5055340;28;20494;-69
2021/06/04 05:25:09;;;;;;;6.27;5.47;;;19.50;1.00;;;;;;5055388;28;20467;-69
2021/06/04 05:27:36;;;;;;;7.20;5.40;;;19.60;1.00;;;;;;5055962;28;20455;-69
2021/06/04 05:30:06;;;;;;;11.33;6.10;;;19.50;1.00;;;;;;5055544;28;20665;-69
2021/06/04 05:32:32;;;;;;;6.70;5.43;;;19.50;1.00;;;;;;5055218;28;20920;-69
2021/06/04 05:34:58;;;;;;;6.63;5.60;;;19.50;1.00;;;;;;5055150;28;20478;-70
2021/06/04 05:37:24;;;;;;;6.90;6.20;;;19.60;1.00;;;;;;5054304;28;20448;-69
2021/06/04 05:39:50;;;;;;;9.00;6.50;;;19.60;1.00;;;;;;5055101;28;20799;-69
2021/06/04 05:42:17;;;;;;;6.30;5.70;;;19.70;1.00;;;;;;5055666;28;20536;-68
2021/06/04 05:44:46;;;;;;;6.50;5.90;;;19.70;1.00;;;;;;5055868;28;20465;-69
2021/06/04 05:47:15;;;;;;;12.17;7.90;;;19.80;1.00;;;;;;5055538;28;20474;-69
2021/06/04 05:49:42;;;;;;;18.70;14.83;;;19.80;1.00;;;;;;5055459;28;20745;-69
2021/06/04 05:52:10;;;;;;;7.53;6.73;;;19.90;1.00;;;;;;5055204;28;20455;-69
2021/06/04 05:54:38;;;;;;;6.80;6.03;;;19.90;1.00;;;;;;5055310;28;20463;-69
2021/06/04 05:57:05;;;;;;;8.40;6.50;;;19.90;1.00;;;;;;5054545;28;20459;-69
2021/06/04 05:59:32;;;;;;;9.07;6.87;;;19.90;1.00;;;;;;5055221;28;20980;-68
2021/06/04 06:01:58;;;;;;;6.50;5.90;;;19.90;1.00;;;;;;5054962;28;20479;-69
2021/06/04 06:04:26;;;;;;;7.27;6.07;;;19.80;1.00;;;;;;5055026;28;20470;-69
2021/06/04 06:06:53;;;;;;;6.70;6.20;;;19.80;1.00;;;;;;5054886;28;20459;-68
2021/06/04 06:09:20;;;;;;;10.70;6.00;;;19.70;1.00;;;;;;5054798;28;20463;-69
2021/06/04 06:11:47;;;;;;;6.63;6.07;;;19.70;1.00;;;;;;5055153;28;20455;-69
2021/06/04 06:14:14;;;;;;;7.23;6.37;;;19.60;1.00;;;;;;5054638;28;20478;-68
2021/06/04 06:16:40;;;;;;;10.10;7.07;;;19.50;1.00;;;;;;5054833;28;20950;-69
2021/06/04 06:19:08;;;;;;;6.97;6.27;;;19.50;1.00;;;;;;5054559;28;20796;-70
2021/06/04 06:21:38;;;;;;;9.20;7.53;;;19.50;1.00;;;;;;5058365;28;20483;-70
2021/06/04 06:24:05;;;;;;;7.90;7.20;;;19.40;97.80;;;;;;5058565;28;20459;-70
2021/06/04 06:26:32;;;;;;;7.23;6.53;;;19.30;99.90;;;;;;5058819;28;20788;-70
2021/06/04 06:29:00;;;;;;;7.70;6.90;;;19.30;99.90;;;;;;5058300;28;20454;-69
2021/06/04 06:31:29;;;;;;;9.70;8.20;;;19.20;99.90;;;;;;5058320;28;20466;-70
2021/06/04 06:33:55;;;;;;;7.80;7.00;;;19.20;1.00;;;;;;5058203;28;20493;-69
2021/06/04 06:36:27;;;;;;;7.73;7.00;;;19.20;1.00;;;;;;5058516;28;20520;-68
2021/06/04 06:38:55;;;;;;;9.60;7.77;;;19.20;1.00;;;;;;5058205;28;20482;-69
2021/06/04 06:41:23;;;;;;;7.60;6.80;;;19.20;1.00;;;;;;5058051;28;20479;-70
2021/06/04 06:43:51;;;;;;;7.30;6.57;;;19.30;1.00;;;;;;5058374;28;20470;-70
2021/06/04 06:46:20;;;;;;;8.93;7.60;;;19.30;1.00;;;;;;5058224;28;20482;-70
2021/06/04 06:48:47;;;;;;;8.00;7.20;;;19.40;1.00;;;;;;5057676;28;20459;-69
2021/06/04 06:51:14;;;;;;;14.60;6.57;;;19.40;99.90;;;;;;5057976;28;20984;-69
2021/06/04 06:53:41;;;;;;;8.20;7.47;;;19.40;99.90;;;;;;5057894;28;20466;-69
2021/06/04 06:56:13;;;;;;;9.13;7.53;;;19.50;1.00;;;;;;5058338;28;20486;-69
2021/06/04 06:58:40;;;;;;;11.10;7.60;;;19.60;99.90;;;;;;5058109;28;20447;-70
2021/06/04 07:01:08;;;;;;;9.43;7.20;;;19.70;99.90;;;;;;5058070;28;20787;-69
2021/06/04 07:03:39;;;;;;;8.73;7.93;;;19.80;99.90;;;;;;5058201;28;20470;-69
2021/06/04 07:06:08;;;;;;;10.20;7.47;;;19.80;99.90;;;;;;5058026;28;20533;-68
2021/06/04 07:08:34;;;;;;;8.97;6.87;;;19.90;99.90;;;;;;5057850;28;20485;-68
2021/06/04 07:11:02;;;;;;;10.57;7.73;;;19.90;99.90;;;;;;5057802;28;20483;-68
2021/06/04 07:13:30;;;;;;;9.23;8.33;;;20.00;99.90;;;;;;5058044;28;20893;-69
2021/06/04 07:16:00;;;;;;;9.20;7.30;;;20.00;99.90;;;;;;5057417;28;20463;-68
2021/06/04 07:18:26;;;;;;;12.43;7.20;;;20.10;99.90;;;;;;5057829;28;20466;-69
2021/06/04 07:20:53;;;;;;;8.73;6.70;;;20.20;99.90;;;;;;5058012;28;20536;-69
2021/06/04 07:23:20;;;;;;;10.53;6.77;;;20.30;75.00;;;;;;5058417;28;20574;-68
2021/06/04 07:25:48;;;;;;;8.43;7.67;;;20.40;59.50;;;;;;5057635;28;20455;-70
2021/06/04 07:28:15;;;;;;;8.80;7.53;;;20.50;26.50;;;;;;5057791;28;20838;-70
2021/06/04 07:30:46;;;;;;;11.30;8.10;;;20.50;22.80;;;;;;5057288;28;20525;-68
2021/06/04 07:33:17;;;;;;;13.10;7.77;;;20.60;15.30;;;;;;5056415;28;20483;-68
2021/06/04 07:35:44;;;;;;;10.73;7.73;;;20.60;5.80;;;;;;5057697;28;20447;-69
2021/06/04 07:38:11;;;;;;;9.70;7.70;;;20.70;1.00;;;;;;5057393;28;20512;-68
2021/06/04 07:40:38;;;;;;;9.23;7.50;;;20.70;1.00;;;;;;5058029;28;20454;-68
2021/06/04 07:43:07;;;;;;;9.13;6.90;;;20.70;1.00;;;;;;5057558;28;20478;-69
2021/06/04 07:45:36;;;;;;;11.77;7.00;;;20.80;1.00;;;;;;5057844;28;20466;-67
2021/06/04 07:48:06;;;;;;;7.20;6.60;;;20.80;1.00;;;;;;5057542;28;20463;-68
2021/06/04 07:50:33;;;;;;;7.50;6.80;;;20.80;1.00;;;;;;5057802;28;20459;-68
2021/06/04 07:52:59;;;;;;;7.70;7.00;;;20.80;1.00;;;;;;5057199;28;20455;-69
2021/06/04 07:55:26;;;;;;;7.63;6.83;;;20.90;1.00;;;;;;5058411;28;20466;-68
2021/06/04 07:57:53;;;;;;;7.33;6.63;;;21.00;1.00;;;;;;5057671;28;20767;-69
2021/06/04 08:00:23;;;;;;;9.43;6.30;;;21.00;1.00;;;;;;5057399;28;20469;-69
2021/06/04 08:02:49;;;;;;;7.20;6.60;;;21.00;1.00;;;;;;5056929;28;20486;-70
2021/06/04 08:05:17;;;;;;;7.47;6.43;;;21.10;1.00;;;;;;5057382;28;20537;-69
2021/06/04 08:07:44;;;;;;;7.40;6.07;;;21.10;1.00;;;;;;5057025;28;20459;-70
2021/06/04 08:10:12;;;;;;;8.33;6.87;;;21.10;1.00;;;;;;5057038;28;20463;-70
2021/06/04 08:12:39;;;;;;;8.50;7.00;;;21.20;1.00;;;;;;5056746;28;20859;-69
2021/06/04 08:15:08;;;;;;;6.80;6.20;;;21.20;1.00;;;;;;5056503;28;20462;-70
2021/06/04 08:17:35;;;;;;;11.40;6.53;;;21.20;1.00;;;;;;5056630;28;20785;-70
2021/06/04 08:20:03;;;;;;;8.10;6.03;;;21.20;1.00;;;;;;5057053;28;20471;-70
2021/06/04 08:22:32;;;;;;;5.83;5.33;;;21.30;1.00;;;;;;5057555;28;20479;-68
2021/06/04 08:24:58;;;;;;;7.40;6.60;;;21.30;1.00;;;;;;5056805;28;20459;-70
2021/06/04 08:27:24;;;;;;;8.30;6.53;;;21.40;1.00;;;;;;5056185;28;20919;-70
2021/06/04 08:29:53;;;;;;;7.80;5.70;;;21.40;1.00;;;;;;5056630;28;20459;-70
2021/06/04 08:32:20;;;;;;;14.13;5.93;;;21.50;1.00;;;;;;5057433;28;20467;-69
2021/06/04 08:34:47;;;;;;;7.03;5.87;;;21.50;1.00;;;;;;5056460;28;20491;-71
2021/06/04 08:37:13;;;;;;;7.40;6.20;;;21.50;1.00;;;;;;5056547;28;20517;-69
2021/06/04 08:39:43;;;;;;;9.70;6.57;;;21.40;1.00;;;;;;5056554;28;20455;-69
2021/06/04 08:42:34;;;;;;;6.30;5.70;;;21.40;1.00;;;;;;5056731;28;20491;-69
2021/06/04 08:45:22;;;;;;;12.73;5.97;;;21.40;1.00;;;;;;5056877;28;20446;-69
2021/06/04 08:47:54;;;;;;;6.93;6.23;;;21.40;1.00;;;;;;5057016;28;20446;-69
2021/06/04 08:50:33;;;;;;;8.23;5.63;;;21.50;1.00;;;;;;5056151;28;20451;-69
2021/06/04 08:53:01;;;;;;;8.87;6.10;;;21.50;1.00;;;;;;5055766;28;20435;-69
2021/06/04 08:55:38;;;;;;;10.80;5.70;;;21.40;1.00;;;;;;5056351;28;20459;-70
2021/06/04 08:58:16;;;;;;;10.33;6.37;;;21.50;1.00;;;;;;5056261;28;20446;-69
2021/06/04 09:00:50;;;;;;;7.47;6.73;;;21.40;1.00;;;;;;5056508;28;20435;-70
2021/06/04 09:03:24;;;;;;;6.23;5.63;;;21.30;1.00;;;;;;5055988;28;20459;-69
2021/06/04 09:05:53;;;;;;;7.50;6.70;;;21.30;1.00;;;;;;5055408;28;20444;-69
2021/06/04 09:08:23;;;;;;;7.40;6.37;;;21.20;1.00;;;;;;5055606;28;20919;-70
2021/06/04 09:10:53;;;;;;;11.73;8.60;;;21.20;1.00;;;;;;5055675;28;20463;-70
2021/06/04 09:13:23;;;;;;;8.93;8.07;;;21.20;1.00;;;;;;5055640;28;20554;-69
2021/06/04 09:15:53;;;;;;;6.57;5.97;;;21.10;1.00;;;;;;5055922;28;20459;-68
2021/06/04 09:18:25;;;;;;;8.50;5.90;;;21.00;1.00;;;;;;5055710;28;20463;-68
2021/06/04 09:20:57;;;;;;;7.53;5.90;;;21.00;1.00;;;;;;5055880;28;20478;-68
2021/06/04 09:23:28;;;;;;;8.53;5.83;;;20.90;1.00;;;;;;5055979;28;20467;-69
2021/06/04 09:25:56;;;;;;;13.13;7.27;;;20.80;1.00;;;;;;5056263;28;20474;-69
2021/06/04 09:28:30;;;;;;;7.00;6.23;;;20.80;1.00;;;;;;5056235;28;20808;-69
2021/06/04 09:30:59;;;;;;;7.10;6.40;;;20.70;1.00;;;;;;5055841;28;20447;-69
2021/06/04 09:33:29;;;;;;;9.30;6.67;;;20.60;1.00;;;;;;5055284;28;20490;-69
2021/06/04 09:36:09;;;;;;;7.70;6.60;;;20.60;1.00;;;;;;5055779;28;20772;-68
2021/06/04 09:38:41;;;;;;;8.30;7.60;;;20.60;1.00;;;;;;5055953;28;20915;-68
2021/06/04 09:41:34;;;;;;;7.93;7.13;;;20.60;1.00;;;;;;5055493;28;20443;-69
2021/06/04 09:44:21;;;;;;;6.63;6.03;;;20.70;1.00;;;;;;5052757;28;20857;-69
2021/06/04 09:46:53;;;;;;;11.33;7.20;;;20.70;1.00;;;;;;5055134;28;20459;-69
2021/06/04 09:49:29;;;;;;;8.23;6.40;;;20.70;1.00;;;;;;5054945;28;20496;-69
2021/06/04 09:52:01;;;;;;;7.37;6.67;;;20.70;14.40;;;;;;5055321;28;20465;-69
2021/06/04 09:54:30;;;;;;;6.90;6.27;;;20.70;3.10;;;;;;5054403;28;20442;-69
2021/06/04 09:57:11;;;;;;;8.97;6.50;;;20.70;1.00;;;;;;5055065;28;20792;-69
2021/06/04 09:59:38;;;;;;;8.13;7.33;;;20.70;9.00;;;;;;5055195;28;20435;-69
2021/06/04 10:02:28;;;;;;;10.00;6.77;;;20.70;19.10;;;;;;5054823;28;20486;-69
2021/06/04 10:05:10;;;;;;;8.20;6.83;;;20.70;11.20;;;;;;5055284;28;20435;-69
2021/06/04 10:07:37;;;;;;;13.27;6.80;;;20.70;8.70;;;;;;5054771;28;20454;-69
2021/06/04 10:10:11;;;;;;;9.83;6.73;;;20.70;99.90;;;;;;5054653;28;20474;-68
2021/06/04 10:12:44;;;;;;;10.60;6.77;;;20.70;99.90;;;;;;5054813;28;20900;-70
2021/06/04 10:15:16;;;;;;;9.90;7.17;;;20.60;99.90;;;;;;5054448;28;20568;-69
2021/06/04 10:17:48;;;;;;;10.30;7.83;;;20.60;99.90;;;;;;5054617;28;20848;-69
2021/06/04 10:20:34;;;;;;;8.40;7.43;;;20.60;99.90;;;;;;5055977;28;20443;-68
2021/06/04 10:23:10;;;;;;;8.93;7.03;;;20.60;99.90;;;;;;5054563;28;20463;-69
2021/06/04 10:25:48;;;;;;;11.67;8.80;;;20.70;99.90;;;;;;5054693;28;20443;-69
2021/06/04 10:28:41;;;;;;;9.13;8.23;;;20.80;99.90;;;;;;5054945;28;20745;-67
2021/06/04 10:31:34;;;;;;;8.77;7.87;;;20.90;99.90;;;;;;5054625;28;20896;-68
2021/06/04 10:34:06;;;;;;;8.73;7.83;;;21.00;99.90;;;;;;5054351;28;20494;-69
2021/06/04 10:36:36;;;;;;;12.60;8.90;;;21.10;99.90;;;;;;5055399;28;20435;-73
2021/06/04 10:39:08;;;;;;;9.70;8.27;;;21.20;99.90;;;;;;5054955;28;20818;-69
2021/06/04 10:41:45;;;;;;;13.67;8.27;;;21.20;99.90;;;;;;5055139;28;20773;-69
2021/06/04 10:44:19;;;;;;;9.27;8.50;;;21.30;99.90;;;;;;5054509;28;20479;-68
2021/06/04 10:46:52;;;;;;;11.27;8.53;;;21.30;99.90;;;;;;5054760;28;20440;-68
2021/06/04 10:49:29;;;;;;;10.53;9.43;;;21.30;99.90;;;;;;5054630;28;20443;-68
2021/06/04 10:51:58;;;;;;;9.73;8.70;;;21.30;99.90;;;;;;5054267;28;20435;-69
2021/06/04 10:54:33;;;;;;;8.80;7.90;;;21.30;99.90;;;;;;5054330;28;20463;-71
2021/06/04 10:57:04;;;;;;;11.00;9.27;;;21.30;99.90;;;;;;5054279;28;20432;-69
2021/06/04 10:59:44;;;;;;;9.97;8.63;;;21.30;99.90;;;;;;5054491;28;20443;-69
2021/06/04 11:02:19;;;;;;;10.00;8.40;;;21.40;99.90;;;;;;5054531;28;20529;-68
2021/06/04 11:05:02;;;;;;;9.67;8.77;;;21.40;99.90;;;;;;5054102;28;20885;-69
2021/06/04 11:07:35;;;;;;;9.20;8.33;;;21.50;99.90;;;;;;5057617;28;20447;-68
2021/06/04 11:10:10;;;;;;;9.60;8.17;;;21.60;99.90;;;;;;5057893;28;20443;-68
2021/06/04 11:13:04;;;;;;;8.60;7.90;;;21.80;99.90;;;;;;5057846;28;20538;-68
2021/06/04 11:15:44;;;;;;;9.33;8.43;;;22.00;99.90;;;;;;5057559;28;20876;-69
2021/06/04 11:18:15;;;;;;;9.30;8.00;;;22.40;99.90;;;;;;5058281;28;20447;-70
2021/06/04 11:20:49;;;;;;;15.43;7.60;;;22.80;99.90;;;;;;5057851;28;20863;-69
2021/06/04 11:23:21;;;;;;;9.00;8.10;;;23.20;71.80;;;;;;5057450;28;20471;-67
2021/06/04 11:25:53;;;;;;;7.90;7.10;;;23.70;20.60;;;;;;5058051;28;20496;-69
2021/06/04 11:28:38;;;;;;;10.47;7.40;;;24.20;1.00;;;;;;5058333;28;20508;-69
2021/06/04 11:31:10;;;;;;;7.77;6.30;;;24.80;1.00;;;;;;5058569;28;20443;-68
2021/06/04 11:33:40;;;;;;;6.10;5.50;;;25.20;1.00;;;;;;5057653;28;20474;-69
2021/06/04 11:36:11;;;;;;;7.27;5.87;;;25.60;1.00;;;;;;5057736;28;20780;-69
2021/06/04 11:38:42;;;;;;;6.50;5.93;;;25.90;1.00;;;;;;5057636;28;20539;-68
2021/06/04 11:41:16;;;;;;;10.47;7.63;;;26.20;1.00;;;;;;5057579;28;20450;-69
2021/06/04 11:43:46;;;;;;;7.10;6.10;;;26.40;1.00;;;;;;5057213;28;20466;-69
2021/06/04 11:46:33;;;;;;;7.53;5.70;;;26.60;1.00;;;;;;5058087;28;20837;-69
2021/06/04 11:49:09;;;;;;;12.57;4.97;;;26.80;1.00;;;;;;5059396;28;20525;-69
2021/06/04 11:51:43;;;;;;;9.20;5.77;;;26.90;1.00;;;;;;5059424;28;20435;-69
2021/06/04 11:54:39;;;;;;;7.77;4.80;;;26.90;1.00;;;;;;5057301;28;20530;-69
2021/06/04 11:57:09;;;;;;;6.00;4.93;;;26.90;1.00;;;;;;5056334;28;20555;-69
2021/06/04 12:00:04;;;;;;;6.17;5.47;;;26.80;1.00;;;;;;5057161;28;20455;-69
2021/06/04 12:02:38;;;;;;;5.50;5.00;;;26.80;1.00;;;;;;5056693;28;20463;-69
2021/06/04 12:05:11;;;;;;;8.70;4.90;;;26.80;1.00;;;;;;5056926;28;20443;-69
2021/06/04 12:07:39;;;;;;;7.30;5.47;;;26.80;1.00;;;;;;5056988;28;20456;-75
2021/06/04 12:10:09;;;;;;;5.37;4.87;;;26.90;1.00;;;;;;5057028;28;20459;-73
2021/06/04 12:12:56;;;;;;;5.33;4.83;;;27.00;1.00;;;;;;5056957;28;20463;-72
2021/06/04 12:15:43;;;;;;;5.40;4.90;;;27.00;1.00;;;;;;5056392;28;20458;-71
2021/06/04 12:18:52;;;;;;;9.30;5.03;;;27.10;1.00;;;;;;5055517;28;20903;-72
2021/06/04 12:21:57;;;;;;;6.03;5.10;;;27.10;1.00;;;;;;5056587;28;20513;-71
2021/06/04 12:25:00;;;;;;;19.83;14.87;;;27.20;1.00;;;;;;5056594;28;20459;-71
2021/06/04 12:28:05;;;;;;;9.03;8.07;;;27.40;1.00;;;;;;5056254;28;20591;-71
2021/06/04 12:31:08;;;;;;;10.20;5.27;;;27.70;1.00;;;;;;5056591;28;20542;-69
2021/06/04 12:33:58;;;;;;;6.70;5.10;;;28.00;1.00;;;;;;5055638;28;20478;-71
2021/06/04 12:37:01;;;;;;;4.93;4.53;;;28.30;1.00;;;;;;5056820;28;20450;-72
2021/06/04 12:39:53;;;;;;;9.03;5.00;;;28.50;1.00;;;;;;5056522;28;20457;-71
2021/06/04 12:42:34;;;;;;;9.60;4.50;;;28.70;1.00;;;;;;5056292;28;20464;-71
2021/06/04 12:45:10;;;;;;;4.80;4.40;;;28.60;1.00;;;;;;5056063;28;20774;-71
2021/06/04 12:47:47;;;;;;;4.90;4.40;;;28.50;1.00;;;;;;5055656;28;20513;-71
2021/06/04 12:50:21;;;;;;;4.97;4.33;;;28.40;1.00;;;;;;5055895;28;20895;-70
2021/06/04 12:52:49;;;;;;;5.50;5.07;;;28.20;1.00;;;;;;5055504;28;20442;-70
2021/06/04 12:55:20;;;;;;;6.70;5.10;;;28.00;1.00;;;;;;5055789;28;20459;-70
2021/06/04 12:57:47;;;;;;;5.00;4.60;;;27.90;1.00;;;;;;5055580;28;20444;-70
2021/06/04 13:00:26;;;;;;;8.77;5.50;;;27.80;1.00;;;;;;5055286;28;20455;-70
2021/06/04 13:02:55;;;;;;;5.53;4.50;;;27.80;1.00;;;;;;5055481;28;20459;-69
2021/06/04 13:05:26;;;;;;;5.10;4.57;;;28.10;1.00;;;;;;5055561;28;20504;-70
2021/06/04 13:07:55;;;;;;;5.00;4.60;;;29.10;1.00;;;;;;5055781;28;20439;-70
2021/06/04 13:10:24;;;;;;;4.83;4.43;;;30.40;1.00;;;;;;5055951;28;20557;-70
2021/06/04 13:12:55;;;;;;;5.00;4.60;;;31.30;1.00;;;;;;5055876;28;20515;-70
2021/06/04 13:15:25;;;;;;;5.40;4.50;;;31.60;1.00;;;;;;5055826;28;20446;-71